^^
Saratoga-Weather Station Historical Data
Daily Summary for April 17, 2021 Units:  English    Metric   Both
Daily Weekly Monthly Yearly Custom
  High: Low: Average:
Temperature: 50.9 °F 42.1 °F 47.5 °F
Dew Point: 46.9 °F 39.4 °F 44.2 °F
Humidity: 92% 80% 89%
Wind Speed: 9mph 0mph 1.8mph
Wind Gust: 13mph - -
Wind- - WSW
Pressure: 30.1 in 30 in -
Precipitation: 0.01 in    
Historical Graphs
 
 
Tabular Data for April 17, 2021
Time Temperature Dew Point Pressure Wind Wind Speed Wind Gust Humidity Rainfall Rate (Hourly) solar
00:00 46.9 °F 44.8 °F 30 in NW 4 mph 10 mph 92% 0 in 0 W/m2
00:05 46.8 °F 44.6 °F 30 in SW 6 mph 11 mph 92% 0 in 0 W/m2
00:10 46.8 °F 44.6 °F 30 in West 2.9 mph 10 mph 92% 0 in 0 W/m2
00:15 46.8 °F 44.6 °F 30 in WNW 4.9 mph 6 mph 92% 0 in 0 W/m2
00:20 46.8 °F 44.6 °F 30 in SW 2.9 mph 7 mph 92% 0 in 0 W/m2
00:25 46.6 °F 44.4 °F 30 in WNW 4 mph 6 mph 92% 0 in 0 W/m2
00:30 46.6 °F 44.4 °F 30 in West 0.9 mph 9 mph 92% 0 in 0 W/m2
00:35 46.6 °F 44.4 °F 30 in Calm   4 mph 92% 0 in 0 W/m2
00:40 46.6 °F 44.4 °F 30 in Calm   9 mph 92% 0 in 0 W/m2
00:45 46.6 °F 44.4 °F 30 in West 2 mph 2 mph 92% 0 in 0 W/m2
00:50 46.4 °F 44.2 °F 30 in WNW 4 mph 7 mph 92% 0 in 0 W/m2
00:55 46.6 °F 44.4 °F 30 in West 2.9 mph 8 mph 92% 0 in 0 W/m2
01:00 46.6 °F 44.4 °F 30 in West 2 mph 8 mph 92% 0 in 0 W/m2
01:05 46.4 °F 44.2 °F 30 in WSW 0.9 mph 3 mph 92% 0 in 0 W/m2
01:10 46.4 °F 44.2 °F 30 in NW 2 mph 10 mph 92% 0 in 0 W/m2
01:15 46.2 °F 44.1 °F 30 in Calm   2 mph 92% 0 in 0 W/m2
01:20 46 °F 43.9 °F 30 in WNW 2 mph 10 mph 92% 0 in 0 W/m2
01:25 46 °F 43.9 °F 30 in Calm   5 mph 92% 0 in 0 W/m2
01:30 45.9 °F 43.7 °F 30 in SW 2 mph 3 mph 92% 0 in 0 W/m2
01:35 45.9 °F 43.7 °F 30 in NW 6.9 mph 7 mph 92% 0 in 0 W/m2
01:40 45.9 °F 43.7 °F 30 in WNW 2.9 mph 6 mph 92% 0 in 0 W/m2
01:45 45.9 °F 43.7 °F 30 in WNW 8.1 mph 8 mph 92% 0 in 0 W/m2
01:50 45.7 °F 43.5 °F 30 in SW 2.9 mph 5 mph 92% 0 in 0 W/m2
01:55 45.9 °F 43.7 °F 30 in WNW 2.9 mph 4 mph 92% 0 in 0 W/m2
02:00 45.9 °F 43.7 °F 30 in North 2 mph 2 mph 92% 0 in 0 W/m2
02:05 45.7 °F 43.5 °F 30 in NW 2 mph 3 mph 92% 0 in 0 W/m2
02:10 45.9 °F 43.7 °F 30.1 in SE 0.9 mph 3 mph 92% 0 in 0 W/m2
02:15 45.9 °F 43.7 °F 30.1 in West 0.9 mph 3 mph 92% 0 in 0 W/m2
02:20 45.9 °F 43.7 °F 30.1 in WSW 4 mph 7 mph 92% 0 in 0 W/m2
02:25 46 °F 43.9 °F 30.1 in Calm   4 mph 92% 0 in 0 W/m2
02:30 46 °F 43.9 °F 30.1 in West 2 mph 4 mph 92% 0 in 0 W/m2
02:35 46 °F 43.9 °F 30.1 in WNW 2 mph 4 mph 92% 0 in 0 W/m2
02:40 46 °F 43.9 °F 30.1 in West 2.9 mph 7 mph 92% 0 in 0 W/m2
02:45 46.2 °F 44.1 °F 30.1 in WNW 4 mph 7 mph 92% 0 in 0 W/m2
02:50 46.2 °F 44.1 °F 30.1 in NW 2 mph 5 mph 92% 0 in 0 W/m2
02:56 46.2 °F 44.1 °F 30.1 in West 2 mph 8 mph 92% 0 in 0 W/m2
03:01 46.2 °F 44.1 °F 30.1 in WNW 0.9 mph 2 mph 92% 0 in 0 W/m2
03:06 46.2 °F 44.1 °F 30.1 in WNW 2.9 mph 7 mph 92% 0 in 0 W/m2
03:11 46.4 °F 44.2 °F 30.1 in West 2 mph 5 mph 92% 0 in 0 W/m2
03:16 46.2 °F 44.1 °F 30.1 in NW 2.9 mph 5 mph 92% 0 in 0 W/m2
03:21 46.4 °F 44.2 °F 30.1 in WSW 2 mph 6 mph 92% 0 in 0 W/m2
03:26 46.4 °F 44.2 °F 30.1 in NW 0.9 mph 4 mph 92% 0 in 0 W/m2
03:31 46.2 °F 44.1 °F 30.1 in WNW 2 mph 10 mph 92% 0 in 0 W/m2
03:36 46.2 °F 44.1 °F 30.1 in WNW 2 mph 4 mph 92% 0 in 0 W/m2
03:41 46.2 °F 44.1 °F 30.1 in NE 0.9 mph 8 mph 92% 0 in 0 W/m2
03:46 46.2 °F 44.1 °F 30.1 in WNW 2.9 mph 5 mph 92% 0 in 0 W/m2
03:51 46.2 °F 44.1 °F 30.1 in NW 0.9 mph 4 mph 92% 0 in 0 W/m2
03:56 46.2 °F 44.1 °F 30.1 in NW 2.9 mph 5 mph 92% 0 in 0 W/m2
04:01 46 °F 43.9 °F 30.1 in Calm   2 mph 92% 0 in 0 W/m2
04:06 46 °F 43.9 °F 30.1 in SW 0.9 mph 8 mph 92% 0 in 0 W/m2
04:11 46 °F 43.9 °F 30.1 in West 0.9 mph 4 mph 92% 0 in 0 W/m2
04:16 46 °F 43.9 °F 30.1 in WNW 2 mph 6 mph 92% 0 in 0 W/m2
04:21 45.9 °F 43.7 °F 30.1 in WNW 4 mph 6 mph 92% 0 in 0 W/m2
04:26 45.9 °F 43.7 °F 30.1 in West 6.9 mph 7 mph 92% 0 in 0 W/m2
04:31 45.9 °F 43.7 °F 30.1 in Calm   5 mph 92% 0 in 0 W/m2
04:36 45.9 °F 43.7 °F 30.1 in WSW 2.9 mph 6 mph 92% 0 in 0 W/m2
04:41 45.9 °F 43.7 °F 30.1 in West 2.9 mph 8 mph 92% 0 in 0 W/m2
04:46 45.9 °F 43.7 °F 30.1 in SSW 4.9 mph 6 mph 92% 0 in 0 W/m2
04:51 45.9 °F 43.7 °F 30.1 in WNW 0.9 mph 8 mph 92% 0 in 0 W/m2
04:56 45.9 °F 43.7 °F 30.1 in SSW 2.9 mph 5 mph 92% 0 in 0 W/m2
05:01 45.7 °F 43.5 °F 30.1 in Calm   8 mph 92% 0 in 0 W/m2
05:06 45.7 °F 43.5 °F 30.1 in West 0.9 mph 4 mph 92% 0 in 0 W/m2
05:11 45.7 °F 43.5 °F 30.1 in West 0.9 mph 3 mph 92% 0 in 0 W/m2
05:16 45.9 °F 43.7 °F 30.1 in WSW 0.9 mph 4 mph 92% 0 in 0 W/m2
05:21 45.7 °F 43.5 °F 30.1 in WNW 2.9 mph 4 mph 92% 0 in 0 W/m2
05:26 45.7 °F 43.5 °F 30.1 in West 6 mph 11 mph 92% 0 in 0 W/m2
05:31 45.7 °F 43.5 °F 30.1 in WNW 2.9 mph 8 mph 92% 0 in 0 W/m2
05:36 45.7 °F 43.5 °F 30.1 in West 4 mph 11 mph 92% 0 in 0 W/m2
05:41 45.7 °F 43.2 °F 30.1 in North 0.9 mph 4 mph 91% 0 in 0 W/m2
05:47 45.5 °F 43 °F 30.1 in West 6.9 mph 13 mph 91% 0 in 0 W/m2
05:52 45.7 °F 43.5 °F 30.1 in WNW 4 mph 6 mph 92% 0 in 0 W/m2
05:57 45.7 °F 43.2 °F 30.1 in WNW 2.9 mph 13 mph 91% 0 in 0 W/m2
06:02 45.7 °F 43.5 °F 30.1 in West 6 mph 6 mph 92% 0 in 0 W/m2
06:07 45.7 °F 43.5 °F 30.1 in SW 2.9 mph 8 mph 92% 0 in 0 W/m2
06:12 45.7 °F 43.2 °F 30.1 in Calm   3 mph 91% 0 in 0 W/m2
06:17 45.7 °F 43.2 °F 30.1 in WNW 2.9 mph 3 mph 91% 0 in 0 W/m2
06:22 45.7 °F 43.5 °F 30.1 in NW 4.9 mph 7 mph 92% 0 in 0 W/m2
06:27 45.7 °F 43.5 °F 30.1 in Calm   3 mph 92% 0 in 0 W/m2
06:32 45.7 °F 43.2 °F 30.1 in NNE 0.9 mph 4 mph 91% 0 in 0 W/m2
06:37 45.7 °F 43.5 °F 30.1 in Calm   2 mph 92% 0 in 0 W/m2
06:42 45.7 °F 43.5 °F 30.1 in South 2 mph 4 mph 92% 0 in 0 W/m2
06:47 45.7 °F 43.5 °F 30.1 in North 2.9 mph 7 mph 92% 0 in 0 W/m2
06:52 45.7 °F 43.5 °F 30.1 in West 2.9 mph 3 mph 92% 0 in 0 W/m2
06:57 45.7 °F 43.5 °F 30.1 in SSW 2 mph 7 mph 92% 0 in 0 W/m2
07:02 45.7 °F 43.5 °F 30.1 in WNW 2.9 mph 4 mph 92% 0 in 0 W/m2
07:07 45.7 °F 43.5 °F 30.1 in WNW 0.9 mph 3 mph 92% 0 in 0 W/m2
07:12 45.7 °F 43.5 °F 30.1 in North 4 mph 6 mph 92% 0 in 0 W/m2
07:17 45.5 °F 43.3 °F 30.1 in West 2 mph 6 mph 92% 0 in 0 W/m2
07:22 45.5 °F 43.3 °F 30.1 in ENE 0.9 mph 4 mph 92% 0 in 0 W/m2
07:27 45.5 °F 43.3 °F 30.1 in West 0.9 mph 3 mph 92% 0 in 0 W/m2
07:32 45.5 °F 43.3 °F 30.1 in Calm   2 mph 92% 0 in 0 W/m2
07:37 45.3 °F 43.2 °F 30.1 in WNW 2 mph 2 mph 92% 0 in 0 W/m2
07:42 45.3 °F 43.2 °F 30.1 in NE 0.9 mph 9 mph 92% 0 in 0 W/m2
07:47 45.3 °F 43.2 °F 30.1 in Calm   2 mph 92% 0 in 0 W/m2
07:52 45.3 °F 43.2 °F 30.1 in West 0.9 mph 9 mph 92% 0 in 0 W/m2
07:57 45.3 °F 43.2 °F 30.1 in Calm   4 mph 92% 0 in 7 W/m2
08:02 45.5 °F 43.3 °F 30.1 in Calm   1 mph 92% 0 in 7 W/m2
08:07 45.5 °F 43.3 °F 30.1 in ENE 2 mph 3 mph 92% 0 in 9 W/m2
08:12 45.7 °F 43.5 °F 30.1 in WNW 0.9 mph 3 mph 92% 0 in 12 W/m2
08:17 45.7 °F 43.5 °F 30.1 in WNW 2 mph 2 mph 92% 0 in 14 W/m2
08:22 45.7 °F 43.5 °F 30.1 in WSW 0.9 mph 2 mph 92% 0 in 14 W/m2
08:27 45.7 °F 43.5 °F 30.1 in NW 2.9 mph 4 mph 92% 0 in 18 W/m2
08:32 45.9 °F 43.7 °F 30.1 in NW 2 mph 3 mph 92% 0 in 23 W/m2
08:37 45.9 °F 43.7 °F 30.1 in Calm   2 mph 92% 0 in 26 W/m2
08:42 45.9 °F 43.3 °F 30.1 in Calm   2 mph 91% 0 in 26 W/m2
08:47 45.9 °F 43.3 °F 30.1 in Calm   1 mph 91% 0 in 33 W/m2
08:52 46 °F 43.5 °F 30.1 in Calm   4 mph 91% 0 in 32 W/m2
08:57 46 °F 43.5 °F 30.1 in Calm   4 mph 91% 0 in 37 W/m2
09:02 46 °F 43.5 °F 30.1 in West 0.9 mph 3 mph 91% 0 in 49 W/m2
09:07 46 °F 43.5 °F 30.1 in Calm   4 mph 91% 0 in 37 W/m2
09:12 46 °F 43.5 °F 30.1 in ENE 2.9 mph 3 mph 91% 0 in 25 W/m2
09:17 46 °F 43.5 °F 30.1 in Calm   4 mph 91% 0 in 25 W/m2
09:22 46 °F 43.5 °F 30.1 in ESE 0.9 mph 2 mph 91% 0 in 54 W/m2
09:27 46 °F 43.5 °F 30.1 in Calm   4 mph 91% 0 in 62 W/m2
09:32 46.2 °F 44.1 °F 30.1 in NW 2 mph 7 mph 92% 0 in 47 W/m2
09:37 46.2 °F 43.7 °F 30.1 in West 0.9 mph 3 mph 91% 0 in 53 W/m2
09:42 46.2 °F 43.7 °F 30.1 in WNW 0.9 mph 7 mph 91% 0 in 69 W/m2
09:47 46.2 °F 43.7 °F 30.1 in WNW 2 mph 3 mph 91% 0 in 72 W/m2
09:52 46.4 °F 43.9 °F 30.1 in WNW 2 mph 3 mph 91% 0 in 46 W/m2
09:57 46.4 °F 43.9 °F 30.1 in ESE 0.9 mph 5 mph 91% 0 in 83 W/m2
10:02 46.6 °F 44.1 °F 30.1 in NNW 0.9 mph 3 mph 91% 0 in 107 W/m2
10:07 46.6 °F 44.1 °F 30.1 in ESE 2 mph 3 mph 91% 0 in 74 W/m2
10:12 46.8 °F 44.2 °F 30.1 in East 0.9 mph 2 mph 91% 0 in 79 W/m2
10:17 46.8 °F 44.2 °F 30.1 in ENE 0.9 mph 3 mph 91% 0 in 72 W/m2
10:22 46.8 °F 44.1 °F 30.1 in East 2 mph 4 mph 90% 0 in 69 W/m2
10:27 46.9 °F 44.2 °F 30.1 in NNW 2.9 mph 8 mph 90% 0 in 86 W/m2
10:32 46.9 °F 44.2 °F 30.1 in NNE 2 mph 5 mph 90% 0 in 111 W/m2
10:37 47.1 °F 44.4 °F 30.1 in ESE 2.9 mph 8 mph 90% 0 in 121 W/m2
10:42 47.3 °F 44.6 °F 30.1 in NW 2 mph 2 mph 90% 0 in 151 W/m2
10:47 47.5 °F 44.8 °F 30.1 in SE 2 mph 2 mph 90% 0 in 179 W/m2
10:52 47.7 °F 44.6 °F 30.1 in NNW 2.9 mph 3 mph 89% 0 in 213 W/m2
10:57 47.8 °F 44.8 °F 30.1 in NNW 2 mph 2 mph 89% 0 in 248 W/m2
11:02 48.4 °F 45.3 °F 30.1 in NW 2 mph 3 mph 89% 0 in 345 W/m2
11:07 48.7 °F 45.7 °F 30.1 in North 0.9 mph 3 mph 89% 0 in 311 W/m2
11:12 49.1 °F 45.7 °F 30.1 in NW 4 mph 4 mph 88% 0 in 244 W/m2
11:17 49.5 °F 45.7 °F 30.1 in NW 2.9 mph 7 mph 87% 0 in 179 W/m2
11:22 49.5 °F 45.5 °F 30.1 in WSW 0.9 mph 8 mph 86% 0 in 272 W/m2
11:27 49.5 °F 45.5 °F 30.1 in NW 2 mph 8 mph 86% 0 in 149 W/m2
11:32 49.5 °F 45.5 °F 30.1 in SW 4.9 mph 7 mph 86% 0 in 309 W/m2
11:37 49.5 °F 45.5 °F 30.1 in WNW 2.9 mph 6 mph 86% 0 in 225 W/m2
11:42 49.6 °F 45.7 °F 30.1 in WNW 6.9 mph 7 mph 86% 0 in 188 W/m2
11:47 49.6 °F 45.7 °F 30.1 in Calm   9 mph 86% 0 in 151 W/m2
11:52 49.6 °F 45.7 °F 30.1 in WSW 0.9 mph 9 mph 86% 0 in 239 W/m2
11:57 49.8 °F 45.9 °F 30.1 in WSW 0.9 mph 7 mph 86% 0 in 156 W/m2
12:02 49.8 °F 45.9 °F 30.1 in NW 2 mph 4 mph 86% 0 in 225 W/m2
12:07 50 °F 46 °F 30.1 in WNW 4 mph 5 mph 86% 0 in 120 W/m2
12:12 49.8 °F 45.9 °F 30.1 in WSW 2 mph 6 mph 86% 0 in 179 W/m2
12:17 49.6 °F 45.9 °F 30.1 in WSW 0.9 mph 5 mph 87% 0 in 127 W/m2
12:22 49.5 °F 46 °F 30.1 in SW 4.9 mph 5 mph 88% 0 in 188 W/m2
12:27 49.5 °F 46 °F 30.1 in North 4 mph 8 mph 88% 0 in 195 W/m2
12:32 49.5 °F 46 °F 30.1 in West 6 mph 9 mph 88% 0 in 250 W/m2
12:37 49.5 °F 46 °F 30.1 in WNW 8.9 mph 10 mph 88% 0 in 248 W/m2
12:42 49.5 °F 46.4 °F 30.1 in West 2 mph 3 mph 89% 0 in 200 W/m2
12:47 49.6 °F 46.6 °F 30.1 in NW 2 mph 3 mph 89% 0 in 199 W/m2
12:52 49.8 °F 46.4 °F 30.1 in NE 2.9 mph 4 mph 88% 0 in 272 W/m2
12:57 50.2 °F 46.8 °F 30.1 in NW 4 mph 6 mph 88% 0 in 267 W/m2
13:03 50.4 °F 46.9 °F 30.1 in NW 6.9 mph 9 mph 88% 0 in 107 W/m2
13:08 50.4 °F 46.4 °F 30.1 in West 2.9 mph 11 mph 86% 0 in 165 W/m2
13:13 50.4 °F 46.4 °F 30.1 in West 4 mph 7 mph 86% 0 in 158 W/m2
13:18 50.4 °F 46.4 °F 30.1 in West 6.9 mph 11 mph 86% 0 in 67 W/m2
13:23 50.2 °F 46.2 °F 30.1 in SW 2 mph 9 mph 86% 0.01 in 107 W/m2
13:28 49.8 °F 46.4 °F 30.1 in WSW 0.9 mph 10 mph 88% 0.01 in 221 W/m2
13:33 49.8 °F 46.8 °F 30.1 in ENE 0.9 mph 4 mph 89% 0.01 in 243 W/m2
13:38 49.8 °F 46.9 °F 30.1 in WNW 2.9 mph 5 mph 90% 0.01 in 169 W/m2
13:43 49.8 °F 46.8 °F 30.1 in SW 2 mph 9 mph 89% 0.01 in 146 W/m2
13:48 49.8 °F 46.8 °F 30.1 in West 2.9 mph 6 mph 89% 0.01 in 167 W/m2
13:53 49.8 °F 46.4 °F 30.1 in West 4 mph 8 mph 88% 0.01 in 188 W/m2
13:58 50 °F 46.6 °F 30.1 in WNW 0.9 mph 7 mph 88% 0.01 in 153 W/m2
14:03 50 °F 46.6 °F 30.1 in WNW 0.9 mph 3 mph 88% 0.01 in 128 W/m2
14:08 50.2 °F 46.4 °F 30.1 in West 0.9 mph 9 mph 87% 0.01 in 149 W/m2
14:13 50.2 °F 46.4 °F 30.1 in West 0.9 mph 2 mph 87% 0.01 in 144 W/m2
14:18 50.2 °F 46.2 °F 30.1 in NW 4 mph 4 mph 86% 0.01 in 146 W/m2
14:23 50.2 °F 46.2 °F 30.1 in WNW 0.9 mph 8 mph 86% 0 in 95 W/m2
14:28 50.2 °F 46.2 °F 30.1 in Calm   6 mph 86% 0 in 77 W/m2
14:33 50.2 °F 46.2 °F 30.1 in WNW 2.9 mph 4 mph 86% 0 in 98 W/m2
14:38 50.2 °F 46.2 °F 30.1 in NE 2 mph 4 mph 86% 0 in 79 W/m2
14:43 50.2 °F 46.2 °F 30.1 in Calm   2 mph 86% 0 in 134 W/m2
14:48 50.2 °F 45.9 °F 30.1 in Calm   7 mph 85% 0 in 111 W/m2
14:53 50.2 °F 46.2 °F 30.1 in WNW 2.9 mph 4 mph 86% 0 in 158 W/m2
14:58 50.4 °F 46 °F 30.1 in NNW 2 mph 3 mph 85% 0 in 144 W/m2
15:03 50.4 °F 46 °F 30.1 in WSW 8.1 mph 10 mph 85% 0 in 153 W/m2
15:08 50.5 °F 45.9 °F 30.1 in WNW 0.9 mph 2 mph 84% 0 in 179 W/m2
15:13 50.5 °F 45.9 °F 30.1 in SSE 9 mph 9 mph 84% 0 in 148 W/m2
15:18 50.7 °F 46 °F 30.1 in WNW 2 mph 9 mph 84% 0 in 130 W/m2
15:23 50.7 °F 46 °F 30.1 in South 2 mph 3 mph 84% 0 in 139 W/m2
15:28 50.7 °F 46 °F 30.1 in Calm   9 mph 84% 0 in 125 W/m2
15:33 50.7 °F 45.5 °F 30.1 in WSW 2.9 mph 7 mph 82% 0 in 100 W/m2
15:38 50.7 °F 45.5 °F 30.1 in West 2.9 mph 4 mph 82% 0 in 104 W/m2
15:43 50.9 °F 45.3 °F 30.1 in WSW 2.9 mph 7 mph 81% 0 in 104 W/m2
15:48 50.9 °F 45.3 °F 30.1 in NW 2 mph 4 mph 81% 0 in 104 W/m2
15:53 50.9 °F 45 °F 30.1 in NW 2 mph 6 mph 80% 0 in 86 W/m2
15:58 50.9 °F 45 °F 30.1 in Calm   3 mph 80% 0 in 74 W/m2
16:03 50.9 °F 45 °F 30.1 in West 0.9 mph 7 mph 80% 0 in 83 W/m2
16:08 50.7 °F 44.8 °F 30.1 in WNW 0.9 mph 2 mph 80% 0 in 86 W/m2
16:13 50.7 °F 45.1 °F 30.1 in SW 0.9 mph 6 mph 81% 0 in 84 W/m2
16:18 50.7 °F 45.1 °F 30.1 in SW 0.9 mph 1 mph 81% 0 in 88 W/m2
16:23 50.7 °F 45.1 °F 30.1 in Calm   1 mph 81% 0 in 74 W/m2
16:28 50.7 °F 44.8 °F 30.1 in NNW 2 mph 4 mph 80% 0 in 67 W/m2
16:33 50.7 °F 44.8 °F 30.1 in Calm   3 mph 80% 0 in 70 W/m2
16:38 50.7 °F 44.8 °F 30.1 in NNE 2.9 mph 4 mph 80% 0 in 58 W/m2
16:43 50.7 °F 44.8 °F 30.1 in East 0.9 mph 3 mph 80% 0 in 62 W/m2
16:48 50.7 °F 44.8 °F 30.1 in North 0.9 mph 2 mph 80% 0 in 53 W/m2
16:53 50.7 °F 44.8 °F 30.1 in Calm   2 mph 80% 0 in 47 W/m2
16:58 50.7 °F 44.8 °F 30.1 in NNW 2 mph 3 mph 80% 0 in 42 W/m2
17:03 50.5 °F 45 °F 30.1 in NNW 0.9 mph 1 mph 81% 0 in 37 W/m2
17:08 50.5 °F 45 °F 30.1 in Calm   2 mph 81% 0 in 44 W/m2
17:13 50.5 °F 45 °F 30.1 in NNE 0.9 mph 2 mph 81% 0 in 39 W/m2
17:18 50.4 °F 44.8 °F 30.1 in NE 0.9 mph 2 mph 81% 0 in 33 W/m2
17:23 50.4 °F 44.8 °F 30.1 in Calm     81% 0 in 32 W/m2
17:28 50.4 °F 44.8 °F 30.1 in Calm     81% 0 in 19 W/m2
17:33 50.2 °F 44.6 °F 30.1 in NNE 0.9 mph 2 mph 81% 0 in 16 W/m2
17:38 50.2 °F 44.6 °F 30.1 in Calm     81% 0 in 11 W/m2
17:43 50 °F 44.8 °F 30.1 in Calm   2 mph 82% 0 in 7 W/m2
17:48 49.8 °F 44.6 °F 30.1 in Calm     82% 0 in 5 W/m2
17:53 49.6 °F 44.4 °F 30.1 in Calm   2 mph 82% 0 in 0 W/m2
17:58 49.5 °F 44.6 °F 30.1 in Calm     83% 0 in 0 W/m2
18:03 49.1 °F 44.4 °F 30.1 in Calm     84% 0 in 0 W/m2
18:08 48.9 °F 44.2 °F 30.1 in Calm     84% 0 in 0 W/m2
18:13 48.6 °F 43.9 °F 30.1 in Calm     84% 0 in 0 W/m2
18:18 48.6 °F 43.9 °F 30.1 in Calm     84% 0 in 0 W/m2
18:23 48.4 °F 44.1 °F 30.1 in ENE 0.9 mph 1 mph 85% 0 in 0 W/m2
18:28 48.2 °F 43.9 °F 30.1 in Calm   2 mph 85% 0 in 0 W/m2
18:33 48 °F 43.7 °F 30.1 in Calm     85% 0 in 0 W/m2
18:38 47.8 °F 43.5 °F 30.1 in Calm   2 mph 85% 0 in 0 W/m2
18:43 47.7 °F 43.7 °F 30.1 in Calm   1 mph 86% 0 in 0 W/m2
18:48 47.5 °F 43.5 °F 30.1 in Calm   2 mph 86% 0 in 0 W/m2
18:53 47.3 °F 43.3 °F 30.1 in Calm     86% 0 in 0 W/m2
18:58 47.1 °F 43.2 °F 30.1 in Calm     86% 0 in 0 W/m2
19:03 46.9 °F 43.3 °F 30.1 in Calm     87% 0 in 0 W/m2
19:08 46.8 °F 43.2 °F 30.1 in Calm     87% 0 in 0 W/m2
19:13 46.6 °F 43 °F 30.1 in Calm     87% 0 in 0 W/m2
19:18 46.2 °F 42.6 °F 30.1 in Calm     87% 0 in 0 W/m2
19:23 46 °F 42.6 °F 30.1 in Calm   1 mph 88% 0 in 0 W/m2
19:28 45.9 °F 42.4 °F 30.1 in Calm     88% 0 in 0 W/m2
19:33 45.7 °F 42.3 °F 30.1 in Calm   1 mph 88% 0 in 0 W/m2
19:38 45.5 °F 42.1 °F 30.1 in Calm     88% 0 in 0 W/m2
19:43 45.1 °F 41.7 °F 30.1 in Calm   1 mph 88% 0 in 0 W/m2
19:48 45 °F 41.5 °F 30.1 in Calm     88% 0 in 0 W/m2
19:54 44.4 °F 41.2 °F 30.1 in Calm     88% 0 in 0 W/m2
19:59 44.2 °F 41 °F 30.1 in NE 0.9 mph 1 mph 88% 0 in 0 W/m2
20:04 43.9 °F 40.6 °F 30.1 in Calm     88% 0 in 0 W/m2
20:09 43.5 °F 40.5 °F 30.1 in Calm     89% 0 in 0 W/m2
20:14 43.2 °F 40.1 °F 30.1 in Calm   1 mph 89% 0 in 0 W/m2
20:19 43 °F 39.9 °F 30.1 in Calm   1 mph 89% 0 in 0 W/m2
20:24 42.6 °F 39.6 °F 30.1 in Calm   2 mph 89% 0 in 0 W/m2
20:29 42.4 °F 39.7 °F 30.1 in Calm     90% 0 in 0 W/m2
20:34 42.3 °F 39.6 °F 30.1 in Calm   2 mph 90% 0 in 0 W/m2
20:39 42.1 °F 39.4 °F 30.1 in Calm     90% 0 in 0 W/m2
Juneau County Weather
Compliments of Weather Underground - 4 mb